Aquasco, Maryland
Current Conditions -  °F | °C
As of 7:58 PM on Tuesday 27 Jan 2015 (Local Time) from KADW Reporting Station
Clear Clear  
Wind Chill: -7°   Ceiling: Unl
Heat Index: -1°   Visibility: 10mi
Dew Point: -7°   Wind: 13mph
Humidity: 66%   Direction: 310°NW
Pressure: 29.87"   Gusts: 23mph
Location:  38.58°N, 76.73°W
Report Text: KADW 280058Z AUTO 31011G20KT 10SM CLR M01/M07 A2987 RMK AO2 PK WND 30026/31 SLP125 T10111067 $
Loading
Personal Weather Stations






























Interactive Weather Map New forecast layout! Learn more

10-Day Weather Forecast

Advertisements
Track Severe Weather on mobile